South Rockwood, MI (48179)

6:40 AM EST on March 06, 2015 (GMT -0500)
Monroe Cnty Skywarn | Change Station
CLOSE
Current Station
Personal Weather Station
Location: S Rockwood, MI
Elevation: 584 ft
Nearby Weather Stations

Elev 584 ft 42.06 °N, 83.26 °W | Updated 0 second ago

Partly Cloudy
Partly Cloudy
-2.7 °F
Feels Like -3 °F
N
0.2
Wind Variable Wind from North
Gusts 0.4 mph

Today
High -- | Low -- °F
--% Chance of Precip.
Yesterday
High -- | Low -- °F
Precip. -- in
7:00 AM 6:28 PM
Full, 100% visible
Pressure 30.49 in
Visibility 10.0 miles
Clouds Clear
Windchill -3 °F
Dew Point -11 °F
Humidity 68%
Rainfall in
Snow Depth Not available.
UV 0 out of 12
Pollen .50 out of 12
Air Quality Not available.
Flu Activity Not available.
METAR KONZ 061134Z AUTO 00000KT 10SM CLR M18/M20 A3049 RMK AO2

More Conditions Fewer Conditions

Pressure 30.49 in
Visibility 10.0 miles
Clouds Clear
Windchill -3 °F
Dew Point -11 °F
Humidity 68%
Rainfall in
Snow Depth Not available.
UV 0 out of 12
Pollen .50 out of 12
Air Quality Not available.
Flu Activity Not available.
METAR KONZ 061134Z AUTO 00000KT 10SM CLR M18/M20 A3049 RMK AO2

More Conditions Fewer Conditions

10-Day Weather Forecast

Almanac

Astronomy

Mar. 06, 2015 Rise Set
Actual Time
Civil Twilight
Nautical Twilight
Astronomical Twilight
Moon
Length of Visible Light
Length of Day
Tomorrow will be .
, % of the Moon is Illuminated

Today's Extremes

State Highs State Lows

Community

WunderPhotos

Upload Photos

1,803,228 photos uploaded!

WunderBlogs® & News

Nearby

Air Quality

  Air Quality AQ Index Pollutant
Not available.

Snow Depth

Station Depth Elevation

Earthquake Activity

City Distance Mag. Time & Date
Minimum magnitude displayed is 2.5.

Coastal Water Temperatures

Place Temperature

Nearby Weather Stations